sensor_id;sensor_type;location;lat;lon;timestamp;P1;durP1;ratioP1;P2;durP2;ratioP2
47335;SDS011;33068;51.990;5.926;2023-01-24T00:01:15;21.50;;;12.25;;
47335;SDS011;33068;51.990;5.926;2023-01-24T00:03:45;23.70;;;12.85;;
47335;SDS011;33068;51.990;5.926;2023-01-24T00:06:13;23.58;;;12.63;;
47335;SDS011;33068;51.990;5.926;2023-01-24T00:08:40;25.20;;;12.23;;
47335;SDS011;33068;51.990;5.926;2023-01-24T00:11:08;22.17;;;12.60;;
47335;SDS011;33068;51.990;5.926;2023-01-24T00:13:37;24.23;;;13.43;;
47335;SDS011;33068;51.990;5.926;2023-01-24T00:16:06;22.85;;;12.93;;
47335;SDS011;33068;51.990;5.926;2023-01-24T00:18:36;21.70;;;12.48;;
47335;SDS011;33068;51.990;5.926;2023-01-24T00:21:04;22.88;;;12.40;;
47335;SDS011;33068;51.990;5.926;2023-01-24T00:23:34;23.10;;;12.07;;
47335;SDS011;33068;51.990;5.926;2023-01-24T00:26:01;22.50;;;11.45;;
47335;SDS011;33068;51.990;5.926;2023-01-24T00:28:29;18.52;;;11.32;;
47335;SDS011;33068;51.990;5.926;2023-01-24T00:30:56;21.23;;;10.50;;
47335;SDS011;33068;51.990;5.926;2023-01-24T00:33:24;21.70;;;10.48;;
47335;SDS011;33068;51.990;5.926;2023-01-24T00:35:52;19.13;;;11.00;;
47335;SDS011;33068;51.990;5.926;2023-01-24T00:38:20;18.10;;;10.05;;
47335;SDS011;33068;51.990;5.926;2023-01-24T00:40:49;18.98;;;11.05;;
47335;SDS011;33068;51.990;5.926;2023-01-24T00:43:17;20.25;;;10.43;;
47335;SDS011;33068;51.990;5.926;2023-01-24T00:45:44;17.77;;;9.90;;
47335;SDS011;33068;51.990;5.926;2023-01-24T00:48:13;20.13;;;10.18;;
47335;SDS011;33068;51.990;5.926;2023-01-24T00:50:40;20.52;;;10.85;;
47335;SDS011;33068;51.990;5.926;2023-01-24T00:53:09;21.67;;;10.18;;
47335;SDS011;33068;51.990;5.926;2023-01-24T00:55:40;18.90;;;10.60;;
47335;SDS011;33068;51.990;5.926;2023-01-24T00:58:09;20.20;;;10.57;;
47335;SDS011;33068;51.990;5.926;2023-01-24T01:00:36;20.50;;;10.68;;
47335;SDS011;33068;51.990;5.926;2023-01-24T01:03:05;19.40;;;10.90;;
47335;SDS011;33068;51.990;5.926;2023-01-24T01:05:32;19.42;;;10.45;;
47335;SDS011;33068;51.990;5.926;2023-01-24T01:08:00;20.63;;;10.60;;
47335;SDS011;33068;51.990;5.926;2023-01-24T01:10:28;20.30;;;10.35;;
47335;SDS011;33068;51.990;5.926;2023-01-24T01:12:56;18.23;;;10.60;;
47335;SDS011;33068;51.990;5.926;2023-01-24T01:15:23;20.98;;;10.55;;
47335;SDS011;33068;51.990;5.926;2023-01-24T01:17:50;23.40;;;10.68;;
47335;SDS011;33068;51.990;5.926;2023-01-24T01:20:22;20.27;;;10.68;;
47335;SDS011;33068;51.990;5.926;2023-01-24T01:22:50;20.83;;;10.90;;
47335;SDS011;33068;51.990;5.926;2023-01-24T01:25:17;21.58;;;11.50;;
47335;SDS011;33068;51.990;5.926;2023-01-24T01:27:48;27.45;;;12.43;;
47335;SDS011;33068;51.990;5.926;2023-01-24T01:30:15;21.10;;;11.98;;
47335;SDS011;33068;51.990;5.926;2023-01-24T01:32:43;22.98;;;11.80;;
47335;SDS011;33068;51.990;5.926;2023-01-24T01:35:10;18.83;;;11.27;;
47335;SDS011;33068;51.990;5.926;2023-01-24T01:37:37;22.10;;;11.32;;
47335;SDS011;33068;51.990;5.926;2023-01-24T01:40:05;20.67;;;11.48;;
47335;SDS011;33068;51.990;5.926;2023-01-24T01:42:39;20.92;;;11.20;;
47335;SDS011;33068;51.990;5.926;2023-01-24T01:45:35;23.23;;;11.43;;
47335;SDS011;33068;51.990;5.926;2023-01-24T01:48:11;23.30;;;11.90;;
47335;SDS011;33068;51.990;5.926;2023-01-24T01:50:56;22.13;;;13.15;;
47335;SDS011;33068;51.990;5.926;2023-01-24T01:53:28;22.52;;;12.63;;
47335;SDS011;33068;51.990;5.926;2023-01-24T01:56:00;21.48;;;12.13;;
47335;SDS011;33068;51.990;5.926;2023-01-24T01:58:31;25.10;;;12.82;;
47335;SDS011;33068;51.990;5.926;2023-01-24T02:01:01;24.23;;;12.50;;
47335;SDS011;33068;51.990;5.926;2023-01-24T02:03:30;24.00;;;12.63;;
47335;SDS011;33068;51.990;5.926;2023-01-24T02:06:08;21.77;;;11.52;;
47335;SDS011;33068;51.990;5.926;2023-01-24T02:08:44;21.65;;;11.27;;
47335;SDS011;33068;51.990;5.926;2023-01-24T02:11:14;27.52;;;12.82;;
47335;SDS011;33068;51.990;5.926;2023-01-24T02:13:59;25.10;;;12.27;;
47335;SDS011;33068;51.990;5.926;2023-01-24T02:16:46;22.40;;;11.15;;
47335;SDS011;33068;51.990;5.926;2023-01-24T02:19:16;24.02;;;12.45;;
47335;SDS011;33068;51.990;5.926;2023-01-24T02:21:50;23.48;;;12.93;;
47335;SDS011;33068;51.990;5.926;2023-01-24T02:24:22;28.52;;;13.57;;
47335;SDS011;33068;51.990;5.926;2023-01-24T02:26:54;25.70;;;14.00;;
47335;SDS011;33068;51.990;5.926;2023-01-24T02:29:23;23.17;;;12.63;;
47335;SDS011;33068;51.990;5.926;2023-01-24T02:31:57;24.80;;;13.15;;
47335;SDS011;33068;51.990;5.926;2023-01-24T02:34:26;28.10;;;14.75;;
47335;SDS011;33068;51.990;5.926;2023-01-24T02:36:55;28.85;;;14.10;;
47335;SDS011;33068;51.990;5.926;2023-01-24T02:39:25;28.83;;;14.15;;
47335;SDS011;33068;51.990;5.926;2023-01-24T02:41:59;25.65;;;14.13;;
47335;SDS011;33068;51.990;5.926;2023-01-24T02:44:31;26.23;;;14.32;;
47335;SDS011;33068;51.990;5.926;2023-01-24T02:47:03;30.80;;;16.20;;
47335;SDS011;33068;51.990;5.926;2023-01-24T02:49:30;27.02;;;15.82;;
47335;SDS011;33068;51.990;5.926;2023-01-24T02:51:58;30.95;;;15.57;;
47335;SDS011;33068;51.990;5.926;2023-01-24T02:54:42;28.25;;;14.93;;
47335;SDS011;33068;51.990;5.926;2023-01-24T02:57:10;29.63;;;15.45;;
47335;SDS011;33068;51.990;5.926;2023-01-24T02:59:55;30.37;;;14.53;;
47335;SDS011;33068;51.990;5.926;2023-01-24T03:02:22;27.50;;;14.98;;
47335;SDS011;33068;51.990;5.926;2023-01-24T03:04:49;31.48;;;15.82;;
47335;SDS011;33068;51.990;5.926;2023-01-24T03:07:19;33.47;;;16.23;;
47335;SDS011;33068;51.990;5.926;2023-01-24T03:09:51;30.13;;;15.85;;
47335;SDS011;33068;51.990;5.926;2023-01-24T03:12:23;28.17;;;16.77;;
47335;SDS011;33068;51.990;5.926;2023-01-24T03:15:11;28.10;;;15.63;;
47335;SDS011;33068;51.990;5.926;2023-01-24T03:17:57;31.42;;;16.25;;
47335;SDS011;33068;51.990;5.926;2023-01-24T03:20:45;32.58;;;17.95;;
47335;SDS011;33068;51.990;5.926;2023-01-24T03:23:30;33.08;;;17.27;;
47335;SDS011;33068;51.990;5.926;2023-01-24T03:26:15;34.60;;;17.48;;
47335;SDS011;33068;51.990;5.926;2023-01-24T03:29:01;33.35;;;17.75;;
47335;SDS011;33068;51.990;5.926;2023-01-24T03:31:46;29.67;;;16.60;;
47335;SDS011;33068;51.990;5.926;2023-01-24T03:34:31;34.35;;;17.98;;
47335;SDS011;33068;51.990;5.926;2023-01-24T03:36:59;30.30;;;17.08;;
47335;SDS011;33068;51.990;5.926;2023-01-24T03:39:30;34.90;;;18.08;;
47335;SDS011;33068;51.990;5.926;2023-01-24T03:42:14;36.00;;;17.92;;
47335;SDS011;33068;51.990;5.926;2023-01-24T03:44:44;33.10;;;18.15;;
47335;SDS011;33068;51.990;5.926;2023-01-24T03:47:11;34.22;;;18.63;;
47335;SDS011;33068;51.990;5.926;2023-01-24T03:49:38;34.72;;;17.88;;
47335;SDS011;33068;51.990;5.926;2023-01-24T03:52:22;32.20;;;17.40;;
47335;SDS011;33068;51.990;5.926;2023-01-24T03:55:03;36.40;;;19.15;;
47335;SDS011;33068;51.990;5.926;2023-01-24T03:57:32;41.78;;;20.33;;
47335;SDS011;33068;51.990;5.926;2023-01-24T04:00:06;36.10;;;19.50;;
47335;SDS011;33068;51.990;5.926;2023-01-24T04:02:42;33.00;;;18.38;;
47335;SDS011;33068;51.990;5.926;2023-01-24T04:05:10;34.20;;;18.70;;
47335;SDS011;33068;51.990;5.926;2023-01-24T04:07:41;37.53;;;18.80;;
47335;SDS011;33068;51.990;5.926;2023-01-24T04:10:09;36.20;;;17.85;;
47335;SDS011;33068;51.990;5.926;2023-01-24T04:12:44;36.60;;;20.27;;
47335;SDS011;33068;51.990;5.926;2023-01-24T04:15:15;36.30;;;18.75;;
47335;SDS011;33068;51.990;5.926;2023-01-24T04:17:48;36.10;;;18.50;;
47335;SDS011;33068;51.990;5.926;2023-01-24T04:20:16;32.47;;;19.10;;
47335;SDS011;33068;51.990;5.926;2023-01-24T04:22:44;34.90;;;18.75;;
47335;SDS011;33068;51.990;5.926;2023-01-24T04:25:12;37.17;;;18.58;;
47335;SDS011;33068;51.990;5.926;2023-01-24T04:27:41;34.00;;;18.70;;
47335;SDS011;33068;51.990;5.926;2023-01-24T04:30:11;38.17;;;19.83;;
47335;SDS011;33068;51.990;5.926;2023-01-24T04:32:46;39.65;;;19.55;;
47335;SDS011;33068;51.990;5.926;2023-01-24T04:35:17;38.70;;;19.40;;
47335;SDS011;33068;51.990;5.926;2023-01-24T04:37:49;32.47;;;17.77;;
47335;SDS011;33068;51.990;5.926;2023-01-24T04:40:29;37.97;;;19.92;;
47335;SDS011;33068;51.990;5.926;2023-01-24T04:42:56;35.03;;;19.88;;
47335;SDS011;33068;51.990;5.926;2023-01-24T04:45:26;38.22;;;19.60;;
47335;SDS011;33068;51.990;5.926;2023-01-24T04:47:55;38.00;;;20.27;;
47335;SDS011;33068;51.990;5.926;2023-01-24T04:50:23;41.53;;;19.88;;
47335;SDS011;33068;51.990;5.926;2023-01-24T04:52:50;38.72;;;19.63;;
47335;SDS011;33068;51.990;5.926;2023-01-24T04:55:17;41.58;;;20.40;;
47335;SDS011;33068;51.990;5.926;2023-01-24T04:57:45;36.70;;;19.25;;
47335;SDS011;33068;51.990;5.926;2023-01-24T05:00:12;42.50;;;20.05;;
47335;SDS011;33068;51.990;5.926;2023-01-24T05:02:41;38.65;;;19.98;;
47335;SDS011;33068;51.990;5.926;2023-01-24T05:05:08;38.17;;;20.13;;
47335;SDS011;33068;51.990;5.926;2023-01-24T05:07:37;37.03;;;19.85;;
47335;SDS011;33068;51.990;5.926;2023-01-24T05:10:09;38.03;;;20.85;;
47335;SDS011;33068;51.990;5.926;2023-01-24T05:12:38;44.55;;;20.23;;
47335;SDS011;33068;51.990;5.926;2023-01-24T05:15:12;40.42;;;20.30;;
47335;SDS011;33068;51.990;5.926;2023-01-24T05:17:43;40.42;;;20.73;;
47335;SDS011;33068;51.990;5.926;2023-01-24T05:22:42;41.30;;;20.83;;
47335;SDS011;33068;51.990;5.926;2023-01-24T05:25:13;36.58;;;19.58;;
47335;SDS011;33068;51.990;5.926;2023-01-24T05:27:41;39.08;;;20.70;;
47335;SDS011;33068;51.990;5.926;2023-01-24T05:30:10;45.08;;;22.00;;
47335;SDS011;33068;51.990;5.926;2023-01-24T05:32:37;42.42;;;21.15;;
47335;SDS011;33068;51.990;5.926;2023-01-24T05:35:07;42.08;;;21.77;;
47335;SDS011;33068;51.990;5.926;2023-01-24T05:37:35;42.03;;;21.55;;
47335;SDS011;33068;51.990;5.926;2023-01-24T05:40:03;42.10;;;20.50;;
47335;SDS011;33068;51.990;5.926;2023-01-24T05:42:32;38.22;;;20.98;;
47335;SDS011;33068;51.990;5.926;2023-01-24T05:44:59;38.38;;;20.33;;
47335;SDS011;33068;51.990;5.926;2023-01-24T05:47:26;37.75;;;20.48;;
47335;SDS011;33068;51.990;5.926;2023-01-24T05:49:53;43.15;;;21.85;;
47335;SDS011;33068;51.990;5.926;2023-01-24T05:52:22;40.58;;;21.55;;
47335;SDS011;33068;51.990;5.926;2023-01-24T05:54:51;39.90;;;19.95;;
47335;SDS011;33068;51.990;5.926;2023-01-24T05:57:26;41.78;;;21.95;;
47335;SDS011;33068;51.990;5.926;2023-01-24T06:00:17;41.30;;;20.23;;
47335;SDS011;33068;51.990;5.926;2023-01-24T06:03:14;39.90;;;20.88;;
47335;SDS011;33068;51.990;5.926;2023-01-24T06:05:44;38.67;;;20.15;;
47335;SDS011;33068;51.990;5.926;2023-01-24T06:08:14;39.80;;;21.30;;
47335;SDS011;33068;51.990;5.926;2023-01-24T06:10:42;39.63;;;22.00;;
47335;SDS011;33068;51.990;5.926;2023-01-24T06:13:11;38.75;;;18.85;;
47335;SDS011;33068;51.990;5.926;2023-01-24T06:15:39;42.33;;;21.02;;
47335;SDS011;33068;51.990;5.926;2023-01-24T06:18:11;37.38;;;20.73;;
47335;SDS011;33068;51.990;5.926;2023-01-24T06:20:41;36.45;;;19.33;;
47335;SDS011;33068;51.990;5.926;2023-01-24T06:23:10;39.38;;;18.92;;
47335;SDS011;33068;51.990;5.926;2023-01-24T06:25:49;33.22;;;18.40;;
47335;SDS011;33068;51.990;5.926;2023-01-24T06:28:17;36.25;;;19.73;;
47335;SDS011;33068;51.990;5.926;2023-01-24T06:30:45;38.80;;;21.23;;
47335;SDS011;33068;51.990;5.926;2023-01-24T06:33:21;39.35;;;20.65;;
47335;SDS011;33068;51.990;5.926;2023-01-24T06:38:33;39.13;;;19.67;;
47335;SDS011;33068;51.990;5.926;2023-01-24T06:41:01;41.10;;;20.92;;
47335;SDS011;33068;51.990;5.926;2023-01-24T06:43:29;40.58;;;20.80;;
47335;SDS011;33068;51.990;5.926;2023-01-24T06:45:59;37.92;;;20.42;;
47335;SDS011;33068;51.990;5.926;2023-01-24T06:48:26;38.72;;;20.23;;
47335;SDS011;33068;51.990;5.926;2023-01-24T06:50:53;43.00;;;21.17;;
47335;SDS011;33068;51.990;5.926;2023-01-24T06:53:20;38.33;;;19.73;;
47335;SDS011;33068;51.990;5.926;2023-01-24T06:55:49;41.15;;;20.83;;
47335;SDS011;33068;51.990;5.926;2023-01-24T06:58:16;37.15;;;20.30;;
47335;SDS011;33068;51.990;5.926;2023-01-24T07:00:43;37.08;;;20.13;;
47335;SDS011;33068;51.990;5.926;2023-01-24T07:03:10;42.88;;;21.85;;
47335;SDS011;33068;51.990;5.926;2023-01-24T07:05:37;39.80;;;20.98;;
47335;SDS011;33068;51.990;5.926;2023-01-24T07:08:05;38.22;;;20.17;;
47335;SDS011;33068;51.990;5.926;2023-01-24T07:10:32;40.22;;;21.15;;
47335;SDS011;33068;51.990;5.926;2023-01-24T07:13:01;42.83;;;21.88;;
47335;SDS011;33068;51.990;5.926;2023-01-24T07:15:28;40.95;;;21.52;;
47335;SDS011;33068;51.990;5.926;2023-01-24T07:17:55;41.53;;;21.52;;
47335;SDS011;33068;51.990;5.926;2023-01-24T07:20:23;42.60;;;22.17;;
47335;SDS011;33068;51.990;5.926;2023-01-24T07:22:50;39.00;;;21.65;;
47335;SDS011;33068;51.990;5.926;2023-01-24T07:25:18;43.38;;;22.63;;
47335;SDS011;33068;51.990;5.926;2023-01-24T07:27:46;41.80;;;21.48;;
47335;SDS011;33068;51.990;5.926;2023-01-24T07:30:15;44.45;;;22.85;;
47335;SDS011;33068;51.990;5.926;2023-01-24T07:32:43;45.10;;;23.10;;
47335;SDS011;33068;51.990;5.926;2023-01-24T07:35:10;50.83;;;23.63;;
47335;SDS011;33068;51.990;5.926;2023-01-24T07:37:37;42.50;;;22.05;;
47335;SDS011;33068;51.990;5.926;2023-01-24T07:40:07;40.63;;;21.25;;
47335;SDS011;33068;51.990;5.926;2023-01-24T07:42:38;42.83;;;21.50;;
47335;SDS011;33068;51.990;5.926;2023-01-24T07:45:06;45.20;;;22.75;;
47335;SDS011;33068;51.990;5.926;2023-01-24T07:47:36;44.53;;;21.83;;
47335;SDS011;33068;51.990;5.926;2023-01-24T07:50:03;40.50;;;21.92;;
47335;SDS011;33068;51.990;5.926;2023-01-24T07:52:31;41.97;;;22.13;;
47335;SDS011;33068;51.990;5.926;2023-01-24T07:54:58;40.90;;;21.63;;
47335;SDS011;33068;51.990;5.926;2023-01-24T07:57:25;42.70;;;22.90;;
47335;SDS011;33068;51.990;5.926;2023-01-24T07:59:52;40.80;;;21.35;;
47335;SDS011;33068;51.990;5.926;2023-01-24T08:02:19;41.17;;;21.13;;
47335;SDS011;33068;51.990;5.926;2023-01-24T08:04:47;40.45;;;21.40;;
47335;SDS011;33068;51.990;5.926;2023-01-24T08:07:14;40.90;;;21.55;;
47335;SDS011;33068;51.990;5.926;2023-01-24T08:09:45;41.95;;;21.42;;
47335;SDS011;33068;51.990;5.926;2023-01-24T08:12:15;40.83;;;21.20;;
47335;SDS011;33068;51.990;5.926;2023-01-24T08:14:42;39.88;;;21.90;;
47335;SDS011;33068;51.990;5.926;2023-01-24T08:17:11;37.90;;;20.88;;
47335;SDS011;33068;51.990;5.926;2023-01-24T08:19:38;42.55;;;22.75;;
47335;SDS011;33068;51.990;5.926;2023-01-24T08:22:07;44.38;;;23.00;;
47335;SDS011;33068;51.990;5.926;2023-01-24T08:24:34;40.53;;;21.88;;
47335;SDS011;33068;51.990;5.926;2023-01-24T08:27:01;45.50;;;22.83;;
47335;SDS011;33068;51.990;5.926;2023-01-24T08:29:32;43.25;;;22.20;;
47335;SDS011;33068;51.990;5.926;2023-01-24T08:31:59;42.08;;;22.92;;
47335;SDS011;33068;51.990;5.926;2023-01-24T08:34:26;42.65;;;22.83;;
47335;SDS011;33068;51.990;5.926;2023-01-24T08:36:53;43.67;;;22.73;;
47335;SDS011;33068;51.990;5.926;2023-01-24T08:39:21;41.75;;;21.63;;
47335;SDS011;33068;51.990;5.926;2023-01-24T08:41:48;37.03;;;19.95;;
47335;SDS011;33068;51.990;5.926;2023-01-24T08:44:15;40.15;;;21.13;;
47335;SDS011;33068;51.990;5.926;2023-01-24T08:46:42;47.17;;;22.67;;
47335;SDS011;33068;51.990;5.926;2023-01-24T08:49:09;41.60;;;21.83;;
47335;SDS011;33068;51.990;5.926;2023-01-24T08:51:37;41.33;;;21.13;;
47335;SDS011;33068;51.990;5.926;2023-01-24T08:54:04;39.83;;;21.50;;
47335;SDS011;33068;51.990;5.926;2023-01-24T08:56:33;37.05;;;19.92;;
47335;SDS011;33068;51.990;5.926;2023-01-24T08:59:00;37.38;;;20.38;;
47335;SDS011;33068;51.990;5.926;2023-01-24T09:01:28;39.85;;;21.38;;
47335;SDS011;33068;51.990;5.926;2023-01-24T09:03:57;37.25;;;20.20;;
47335;SDS011;33068;51.990;5.926;2023-01-24T09:06:24;39.35;;;20.73;;
47335;SDS011;33068;51.990;5.926;2023-01-24T09:08:52;39.20;;;20.85;;
47335;SDS011;33068;51.990;5.926;2023-01-24T09:11:20;40.10;;;22.15;;
47335;SDS011;33068;51.990;5.926;2023-01-24T09:13:49;36.00;;;18.50;;
47335;SDS011;33068;51.990;5.926;2023-01-24T09:16:16;37.97;;;20.13;;
47335;SDS011;33068;51.990;5.926;2023-01-24T09:18:43;33.53;;;18.80;;
47335;SDS011;33068;51.990;5.926;2023-01-24T09:21:10;36.08;;;18.45;;
47335;SDS011;33068;51.990;5.926;2023-01-24T09:23:37;38.75;;;17.85;;
47335;SDS011;33068;51.990;5.926;2023-01-24T09:26:04;34.28;;;19.08;;
47335;SDS011;33068;51.990;5.926;2023-01-24T09:28:32;32.80;;;18.55;;
47335;SDS011;33068;51.990;5.926;2023-01-24T09:31:02;36.65;;;19.48;;
47335;SDS011;33068;51.990;5.926;2023-01-24T09:33:33;37.33;;;19.42;;
47335;SDS011;33068;51.990;5.926;2023-01-24T09:36:01;34.95;;;18.95;;
47335;SDS011;33068;51.990;5.926;2023-01-24T09:38:29;37.65;;;20.25;;
47335;SDS011;33068;51.990;5.926;2023-01-24T09:41:00;40.95;;;21.02;;
47335;SDS011;33068;51.990;5.926;2023-01-24T09:43:42;39.42;;;20.05;;
47335;SDS011;33068;51.990;5.926;2023-01-24T09:46:18;41.33;;;21.70;;
47335;SDS011;33068;51.990;5.926;2023-01-24T09:49:05;39.33;;;21.38;;
47335;SDS011;33068;51.990;5.926;2023-01-24T09:51:40;40.78;;;20.75;;
47335;SDS011;33068;51.990;5.926;2023-01-24T09:54:15;34.55;;;20.42;;
47335;SDS011;33068;51.990;5.926;2023-01-24T09:56:55;38.83;;;20.40;;
47335;SDS011;33068;51.990;5.926;2023-01-24T09:59:26;34.78;;;18.63;;
47335;SDS011;33068;51.990;5.926;2023-01-24T10:02:05;34.83;;;19.25;;
47335;SDS011;33068;51.990;5.926;2023-01-24T10:04:41;34.90;;;19.25;;
47335;SDS011;33068;51.990;5.926;2023-01-24T10:07:24;37.00;;;19.42;;
47335;SDS011;33068;51.990;5.926;2023-01-24T10:10:10;37.58;;;20.23;;
47335;SDS011;33068;51.990;5.926;2023-01-24T10:12:47;37.05;;;19.85;;
47335;SDS011;33068;51.990;5.926;2023-01-24T10:15:29;35.80;;;19.05;;
47335;SDS011;33068;51.990;5.926;2023-01-24T10:18:09;35.90;;;20.08;;
47335;SDS011;33068;51.990;5.926;2023-01-24T10:20:48;35.25;;;19.10;;
47335;SDS011;33068;51.990;5.926;2023-01-24T10:23:24;32.92;;;17.92;;
47335;SDS011;33068;51.990;5.926;2023-01-24T10:25:54;34.00;;;18.75;;
47335;SDS011;33068;51.990;5.926;2023-01-24T10:28:26;36.88;;;20.45;;
47335;SDS011;33068;51.990;5.926;2023-01-24T10:31:02;38.53;;;20.63;;
47335;SDS011;33068;51.990;5.926;2023-01-24T10:33:36;35.55;;;18.45;;
47335;SDS011;33068;51.990;5.926;2023-01-24T10:36:09;38.80;;;20.63;;
47335;SDS011;33068;51.990;5.926;2023-01-24T10:38:42;39.75;;;21.55;;
47335;SDS011;33068;51.990;5.926;2023-01-24T10:41:17;34.97;;;20.42;;
47335;SDS011;33068;51.990;5.926;2023-01-24T10:43:49;37.47;;;20.58;;
47335;SDS011;33068;51.990;5.926;2023-01-24T10:49:16;34.15;;;19.13;;
47335;SDS011;33068;51.990;5.926;2023-01-24T10:54:42;32.28;;;19.35;;
47335;SDS011;33068;51.990;5.926;2023-01-24T10:57:18;35.00;;;17.65;;
47335;SDS011;33068;51.990;5.926;2023-01-24T10:59:54;31.30;;;17.67;;
47335;SDS011;33068;51.990;5.926;2023-01-24T11:02:22;35.72;;;20.17;;
47335;SDS011;33068;51.990;5.926;2023-01-24T11:04:54;33.42;;;18.88;;
47335;SDS011;33068;51.990;5.926;2023-01-24T11:07:26;34.78;;;18.60;;
47335;SDS011;33068;51.990;5.926;2023-01-24T11:09:58;32.97;;;19.20;;
47335;SDS011;33068;51.990;5.926;2023-01-24T11:12:26;34.72;;;19.05;;
47335;SDS011;33068;51.990;5.926;2023-01-24T11:14:54;37.63;;;18.92;;
47335;SDS011;33068;51.990;5.926;2023-01-24T11:17:28;29.65;;;17.63;;
47335;SDS011;33068;51.990;5.926;2023-01-24T11:20:00;31.05;;;17.20;;
47335;SDS011;33068;51.990;5.926;2023-01-24T11:22:31;32.03;;;18.65;;
47335;SDS011;33068;51.990;5.926;2023-01-24T11:25:01;34.25;;;18.10;;
47335;SDS011;33068;51.990;5.926;2023-01-24T11:27:29;29.67;;;16.92;;
47335;SDS011;33068;51.990;5.926;2023-01-24T11:30:07;30.10;;;17.58;;
47335;SDS011;33068;51.990;5.926;2023-01-24T11:32:43;29.13;;;17.15;;
47335;SDS011;33068;51.990;5.926;2023-01-24T11:35:20;34.38;;;17.20;;
47335;SDS011;33068;51.990;5.926;2023-01-24T11:37:59;29.25;;;16.83;;
47335;SDS011;33068;51.990;5.926;2023-01-24T11:40:41;25.20;;;14.88;;
47335;SDS011;33068;51.990;5.926;2023-01-24T11:43:24;29.27;;;15.70;;
47335;SDS011;33068;51.990;5.926;2023-01-24T11:46:10;28.70;;;15.45;;
47335;SDS011;33068;51.990;5.926;2023-01-24T11:48:47;27.65;;;15.82;;
47335;SDS011;33068;51.990;5.926;2023-01-24T11:51:23;29.02;;;15.23;;
47335;SDS011;33068;51.990;5.926;2023-01-24T11:54:06;24.52;;;14.48;;
47335;SDS011;33068;51.990;5.926;2023-01-24T11:56:42;28.75;;;16.20;;
47335;SDS011;33068;51.990;5.926;2023-01-24T11:59:20;24.75;;;15.07;;
47335;SDS011;33068;51.990;5.926;2023-01-24T12:02:12;26.05;;;14.60;;
47335;SDS011;33068;51.990;5.926;2023-01-24T12:04:58;24.63;;;14.40;;
47335;SDS011;33068;51.990;5.926;2023-01-24T12:13:03;24.85;;;14.98;;
47335;SDS011;33068;51.990;5.926;2023-01-24T12:15:38;28.63;;;13.85;;
47335;SDS011;33068;51.990;5.926;2023-01-24T12:18:28;23.52;;;13.65;;
47335;SDS011;33068;51.990;5.926;2023-01-24T12:21:05;24.25;;;13.80;;
47335;SDS011;33068;51.990;5.926;2023-01-24T12:23:38;23.90;;;14.10;;
47335;SDS011;33068;51.990;5.926;2023-01-24T12:26:13;24.48;;;14.38;;
47335;SDS011;33068;51.990;5.926;2023-01-24T12:28:47;25.05;;;14.88;;
47335;SDS011;33068;51.990;5.926;2023-01-24T12:31:22;22.58;;;13.80;;
47335;SDS011;33068;51.990;5.926;2023-01-24T12:33:56;21.85;;;13.65;;
47335;SDS011;33068;51.990;5.926;2023-01-24T12:36:35;25.08;;;13.80;;
47335;SDS011;33068;51.990;5.926;2023-01-24T12:39:10;24.27;;;13.25;;
47335;SDS011;33068;51.990;5.926;2023-01-24T12:41:40;24.50;;;13.52;;
47335;SDS011;33068;51.990;5.926;2023-01-24T12:44:18;23.30;;;13.43;;
47335;SDS011;33068;51.990;5.926;2023-01-24T12:50:00;26.42;;;13.93;;
47335;SDS011;33068;51.990;5.926;2023-01-24T12:52:35;23.50;;;13.32;;
47335;SDS011;33068;51.990;5.926;2023-01-24T12:55:08;20.95;;;13.55;;
47335;SDS011;33068;51.990;5.926;2023-01-24T12:57:40;23.23;;;13.77;;
47335;SDS011;33068;51.990;5.926;2023-01-24T13:00:19;25.70;;;14.82;;
47335;SDS011;33068;51.990;5.926;2023-01-24T13:05:52;26.27;;;13.45;;
47335;SDS011;33068;51.990;5.926;2023-01-24T13:08:28;24.77;;;13.43;;
47335;SDS011;33068;51.990;5.926;2023-01-24T13:11:08;23.40;;;14.35;;
47335;SDS011;33068;51.990;5.926;2023-01-24T13:13:45;19.40;;;12.60;;
47335;SDS011;33068;51.990;5.926;2023-01-24T13:19:35;24.02;;;13.48;;
47335;SDS011;33068;51.990;5.926;2023-01-24T13:22:23;28.17;;;14.05;;
47335;SDS011;33068;51.990;5.926;2023-01-24T13:25:08;22.13;;;13.43;;
47335;SDS011;33068;51.990;5.926;2023-01-24T13:27:50;22.83;;;12.40;;
47335;SDS011;33068;51.990;5.926;2023-01-24T13:30:29;22.10;;;13.02;;
47335;SDS011;33068;51.990;5.926;2023-01-24T13:33:02;21.58;;;12.43;;
47335;SDS011;33068;51.990;5.926;2023-01-24T13:35:31;21.20;;;12.90;;
47335;SDS011;33068;51.990;5.926;2023-01-24T13:38:02;23.20;;;11.98;;
47335;SDS011;33068;51.990;5.926;2023-01-24T13:40:31;19.88;;;12.80;;
47335;SDS011;33068;51.990;5.926;2023-01-24T13:43:01;23.45;;;13.43;;
47335;SDS011;33068;51.990;5.926;2023-01-24T13:45:48;23.98;;;13.25;;
47335;SDS011;33068;51.990;5.926;2023-01-24T13:51:30;24.87;;;13.53;;
47335;SDS011;33068;51.990;5.926;2023-01-24T13:54:16;19.55;;;12.77;;
47335;SDS011;33068;51.990;5.926;2023-01-24T14:00:00;21.80;;;13.32;;
47335;SDS011;33068;51.990;5.926;2023-01-24T14:05:34;19.35;;;11.93;;
47335;SDS011;33068;51.990;5.926;2023-01-24T14:08:14;18.88;;;12.40;;
47335;SDS011;33068;51.990;5.926;2023-01-24T14:11:15;23.55;;;13.23;;
47335;SDS011;33068;51.990;5.926;2023-01-24T14:14:00;17.88;;;11.77;;
47335;SDS011;33068;51.990;5.926;2023-01-24T14:16:54;22.88;;;15.10;;
47335;SDS011;33068;51.990;5.926;2023-01-24T14:19:46;23.65;;;13.60;;
47335;SDS011;33068;51.990;5.926;2023-01-24T14:22:20;19.83;;;12.73;;
47335;SDS011;33068;51.990;5.926;2023-01-24T14:24:57;22.38;;;14.13;;
47335;SDS011;33068;51.990;5.926;2023-01-24T14:27:35;24.55;;;13.45;;
47335;SDS011;33068;51.990;5.926;2023-01-24T14:30:15;24.77;;;13.80;;
47335;SDS011;33068;51.990;5.926;2023-01-24T14:32:55;21.88;;;13.80;;
47335;SDS011;33068;51.990;5.926;2023-01-24T14:35:29;21.55;;;13.07;;
47335;SDS011;33068;51.990;5.926;2023-01-24T14:38:12;22.48;;;13.15;;
47335;SDS011;33068;51.990;5.926;2023-01-24T14:40:41;23.17;;;13.10;;
47335;SDS011;33068;51.990;5.926;2023-01-24T14:43:11;21.00;;;12.73;;
47335;SDS011;33068;51.990;5.926;2023-01-24T14:45:38;21.70;;;13.95;;
47335;SDS011;33068;51.990;5.926;2023-01-24T14:48:08;21.23;;;12.90;;
47335;SDS011;33068;51.990;5.926;2023-01-24T14:50:40;28.05;;;14.32;;
47335;SDS011;33068;51.990;5.926;2023-01-24T14:53:25;21.75;;;12.85;;
47335;SDS011;33068;51.990;5.926;2023-01-24T14:55:54;23.17;;;12.68;;
47335;SDS011;33068;51.990;5.926;2023-01-24T14:58:23;22.75;;;13.35;;
47335;SDS011;33068;51.990;5.926;2023-01-24T15:00:51;19.73;;;12.80;;
47335;SDS011;33068;51.990;5.926;2023-01-24T15:03:21;21.42;;;12.90;;
47335;SDS011;33068;51.990;5.926;2023-01-24T15:05:54;19.63;;;12.05;;
47335;SDS011;33068;51.990;5.926;2023-01-24T15:08:26;21.80;;;13.13;;
47335;SDS011;33068;51.990;5.926;2023-01-24T15:10:55;23.83;;;13.55;;
47335;SDS011;33068;51.990;5.926;2023-01-24T15:13:29;19.85;;;12.15;;
47335;SDS011;33068;51.990;5.926;2023-01-24T15:15:58;20.90;;;13.20;;
47335;SDS011;33068;51.990;5.926;2023-01-24T15:18:31;20.00;;;12.10;;
47335;SDS011;33068;51.990;5.926;2023-01-24T15:21:05;24.42;;;13.57;;
47335;SDS011;33068;51.990;5.926;2023-01-24T15:23:50;19.45;;;12.27;;
47335;SDS011;33068;51.990;5.926;2023-01-24T15:26:20;22.83;;;12.48;;